createdAt,value
2023-04-10T00:00:45.806Z,14.30
2023-04-10T00:03:18.083Z,14.00
2023-04-10T00:05:46.717Z,14.05
2023-04-10T00:08:15.088Z,14.55
2023-04-10T00:10:43.432Z,14.85
2023-04-10T00:13:12.349Z,13.73
2023-04-10T00:15:40.720Z,14.48
2023-04-10T00:18:09.230Z,15.85
2023-04-10T00:20:39.039Z,18.20
2023-04-10T00:23:07.588Z,19.75
2023-04-10T00:25:36.127Z,17.75
2023-04-10T00:28:04.495Z,17.40
2023-04-10T00:30:32.860Z,16.08
2023-04-10T00:33:01.323Z,16.73
2023-04-10T00:35:29.694Z,15.93
2023-04-10T00:37:59.408Z,16.52
2023-04-10T00:40:30.323Z,16.77
2023-04-10T00:42:58.674Z,15.85
2023-04-10T00:45:27.346Z,15.52
2023-04-10T00:47:56.791Z,16.17
2023-04-10T00:50:25.712Z,15.80
2023-04-10T00:52:54.518Z,16.38
2023-04-10T00:55:24.786Z,17.02
2023-04-10T00:57:53.252Z,16.48
2023-04-10T01:00:21.696Z,16.63
2023-04-10T01:02:50.967Z,17.95
2023-04-10T01:05:19.533Z,17.58
2023-04-10T01:07:58.821Z,17.33
2023-04-10T01:10:37.664Z,18.30
2023-04-10T01:13:16.139Z,17.40
2023-04-10T01:15:48.886Z,18.13
2023-04-10T01:18:23.977Z,18.75
2023-04-10T01:20:52.351Z,17.98
2023-04-10T01:23:58.540Z,17.95
2023-04-10T01:26:41.764Z,19.25
2023-04-10T01:29:15.979Z,17.92
2023-04-10T01:31:53.358Z,19.00
2023-04-10T01:34:25.100Z,19.05
2023-04-10T01:37:00.945Z,18.65
2023-04-10T01:39:31.531Z,18.58
2023-04-10T01:42:01.489Z,18.15
2023-04-10T01:44:32.868Z,18.25
2023-04-10T01:47:03.440Z,18.20
2023-04-10T01:49:34.026Z,18.83
2023-04-10T01:52:03.378Z,18.17
2023-04-10T01:54:33.754Z,19.02
2023-04-10T01:57:04.011Z,18.58
2023-04-10T01:59:33.791Z,19.63
2023-04-10T02:02:03.061Z,19.20
2023-04-10T02:04:31.770Z,19.08
2023-04-10T02:07:04.951Z,18.88
2023-04-10T02:09:43.371Z,21.42
2023-04-10T02:12:16.819Z,20.88
2023-04-10T02:14:48.263Z,20.70
2023-04-10T02:17:21.981Z,20.95
2023-04-10T02:19:52.177Z,21.75
2023-04-10T02:22:20.763Z,21.38
2023-04-10T02:24:50.153Z,22.83
2023-04-10T02:27:28.344Z,21.38
2023-04-10T02:29:58.246Z,22.75
2023-04-10T02:32:27.219Z,22.90
2023-04-10T02:34:56.433Z,21.38
2023-04-10T02:37:24.975Z,21.27
2023-04-10T02:39:54.616Z,20.15
2023-04-10T02:42:22.998Z,21.05
2023-04-10T02:44:51.374Z,22.25
2023-04-10T02:47:21.192Z,21.35
2023-04-10T02:49:49.562Z,20.77
2023-04-10T02:52:18.168Z,21.33
2023-04-10T02:54:46.530Z,21.38
2023-04-10T02:57:14.869Z,22.42
2023-04-10T02:59:43.492Z,19.50
2023-04-10T03:02:12.343Z,22.77
2023-04-10T03:04:42.994Z,22.63
2023-04-10T03:07:11.440Z,22.20
2023-04-10T03:09:39.771Z,22.73
2023-04-10T03:12:08.128Z,22.25
2023-04-10T03:14:36.562Z,22.52
2023-04-10T03:17:05.326Z,22.98
2023-04-10T03:19:33.662Z,22.42
2023-04-10T03:22:03.656Z,23.13
2023-04-10T03:24:31.959Z,22.92
2023-04-10T03:27:00.306Z,22.65
2023-04-10T03:29:28.611Z,21.83
2023-04-10T03:31:57.511Z,21.73
2023-04-10T03:34:25.983Z,22.08
2023-04-10T03:36:54.317Z,22.20
2023-04-10T03:39:24.702Z,23.17
2023-04-10T03:41:53.057Z,20.23
2023-04-10T03:44:22.617Z,20.77
2023-04-10T03:46:50.982Z,21.20
2023-04-10T03:49:19.323Z,22.15
2023-04-10T03:51:47.710Z,22.02
2023-04-10T03:54:16.093Z,21.63
2023-04-10T03:56:45.858Z,21.27
2023-04-10T03:59:14.183Z,20.65
2023-04-10T04:01:42.759Z,22.15
2023-04-10T04:04:11.578Z,22.17
2023-04-10T04:06:40.439Z,22.00
2023-04-10T04:09:08.906Z,21.70
2023-04-10T04:11:38.492Z,22.10
2023-04-10T04:14:08.172Z,21.67
2023-04-10T04:16:36.693Z,22.95
2023-04-10T04:19:05.137Z,21.75
2023-04-10T04:21:33.664Z,23.90
2023-04-10T04:24:02.003Z,23.08
2023-04-10T04:26:30.357Z,24.17
2023-04-10T04:28:58.727Z,24.20
2023-04-10T04:31:32.616Z,23.10
2023-04-10T04:34:01.303Z,24.38
2023-04-10T04:36:29.639Z,25.10
2023-04-10T04:38:57.988Z,27.83
2023-04-10T04:41:26.301Z,27.63
2023-04-10T04:43:55.786Z,28.73
2023-04-10T04:46:24.429Z,27.67
2023-04-10T04:48:54.266Z,26.88
2023-04-10T04:51:22.735Z,26.45
2023-04-10T04:53:51.197Z,28.45
2023-04-10T04:56:19.600Z,28.85
2023-04-10T04:58:47.929Z,28.70
2023-04-10T05:01:16.333Z,27.95
2023-04-10T05:03:44.924Z,27.77
2023-04-10T05:06:15.460Z,27.52
2023-04-10T05:08:43.791Z,26.27
2023-04-10T05:11:12.219Z,25.63
2023-04-10T05:13:40.583Z,25.85
2023-04-10T05:16:09.672Z,24.23
2023-04-10T05:18:38.219Z,23.60
2023-04-10T05:21:07.163Z,25.15
2023-04-10T05:23:37.238Z,24.13
2023-04-10T05:26:06.084Z,23.55
2023-04-10T05:28:34.474Z,23.52
2023-04-10T05:31:02.919Z,22.90
2023-04-10T05:33:31.317Z,23.70
2023-04-10T05:35:59.810Z,24.48
2023-04-10T05:38:28.166Z,22.95
2023-04-10T05:40:57.854Z,22.60
2023-04-10T05:43:26.649Z,24.15
2023-04-10T05:45:55.052Z,22.88
2023-04-10T05:48:26.120Z,24.40
2023-04-10T05:50:54.511Z,24.70
2023-04-10T05:53:25.425Z,21.45
2023-04-10T05:55:56.380Z,22.63
2023-04-10T05:58:26.332Z,21.52
2023-04-10T06:00:54.842Z,21.45
2023-04-10T06:03:24.028Z,21.10
2023-04-10T06:05:52.599Z,19.45
2023-04-10T06:08:22.762Z,18.92
2023-04-10T06:10:51.152Z,19.52
2023-04-10T06:13:19.547Z,19.88
2023-04-10T06:15:49.276Z,19.38
2023-04-10T06:18:17.701Z,19.30
2023-04-10T06:20:46.124Z,18.80
2023-04-10T06:23:14.795Z,19.17
2023-04-10T06:25:43.208Z,19.67
2023-04-10T06:28:11.561Z,19.73
2023-04-10T06:30:39.966Z,19.65
2023-04-10T06:33:09.731Z,19.58
2023-04-10T06:35:38.603Z,19.55
2023-04-10T06:38:07.001Z,19.25
2023-04-10T06:40:35.482Z,19.98
2023-04-10T06:43:03.874Z,19.33
2023-04-10T06:45:32.452Z,20.52
2023-04-10T06:48:00.982Z,19.55
2023-04-10T06:50:33.280Z,20.33
2023-04-10T06:53:01.868Z,20.88
2023-04-10T06:55:30.739Z,21.55
2023-04-10T06:57:59.179Z,21.02
2023-04-10T07:00:27.984Z,22.65
2023-04-10T07:02:57.369Z,23.55
2023-04-10T07:05:26.002Z,24.60
2023-04-10T07:07:55.998Z,26.25
2023-04-10T07:10:24.865Z,25.45
2023-04-10T07:12:53.213Z,25.23
2023-04-10T07:15:21.854Z,27.13
2023-04-10T07:17:50.339Z,25.25
2023-04-10T07:20:18.712Z,25.92
2023-04-10T07:22:47.062Z,25.17
2023-04-10T07:25:18.476Z,23.88
2023-04-10T07:27:46.786Z,26.70
2023-04-10T07:30:15.281Z,26.48
2023-04-10T07:32:43.828Z,26.70
2023-04-10T07:35:12.275Z,27.63
2023-04-10T07:37:41.250Z,27.15
2023-04-10T07:40:10.882Z,27.67
2023-04-10T07:42:40.655Z,28.95
2023-04-10T07:45:10.298Z,26.35
2023-04-10T07:47:38.819Z,28.25
2023-04-10T07:50:08.932Z,27.63
2023-04-10T07:52:37.424Z,28.38
2023-04-10T07:55:06.403Z,27.45
2023-04-10T07:57:34.740Z,27.42
2023-04-10T08:00:04.835Z,27.48
2023-04-10T08:02:33.479Z,29.40
2023-04-10T08:05:02.200Z,28.65
2023-04-10T08:07:31.320Z,29.05
2023-04-10T08:09:59.631Z,28.08
2023-04-10T08:12:27.971Z,28.88
2023-04-10T08:14:56.432Z,28.77
2023-04-10T08:17:26.264Z,27.30
2023-04-10T08:19:54.609Z,26.73
2023-04-10T08:22:23.009Z,26.58
2023-04-10T08:24:51.542Z,26.65
2023-04-10T08:27:19.891Z,27.50
2023-04-10T08:29:48.223Z,26.45
2023-04-10T08:32:16.635Z,26.15
2023-04-10T08:34:46.443Z,27.73
2023-04-10T08:37:15.719Z,27.90
2023-04-10T08:39:44.067Z,29.05
2023-04-10T08:42:12.753Z,26.95
2023-04-10T08:44:41.767Z,25.50
2023-04-10T08:47:10.740Z,24.67
2023-04-10T08:49:44.634Z,24.10
2023-04-10T08:52:18.262Z,22.55
2023-04-10T08:54:49.978Z,20.80
2023-04-10T08:57:20.769Z,18.48
2023-04-10T08:59:49.948Z,18.73
2023-04-10T09:02:18.578Z,18.23
2023-04-10T09:04:50.674Z,19.45
2023-04-10T09:07:20.446Z,18.90
2023-04-10T09:09:48.789Z,18.77
2023-04-10T09:12:17.869Z,18.40
2023-04-10T09:14:46.451Z,19.08
2023-04-10T09:17:17.339Z,19.00
2023-04-10T09:19:47.084Z,18.77
2023-04-10T09:22:16.283Z,17.17
2023-04-10T09:24:47.598Z,19.08
2023-04-10T09:27:31.217Z,17.45
2023-04-10T09:30:00.049Z,18.73
2023-04-10T09:32:38.635Z,18.33
2023-04-10T09:35:08.624Z,18.63
2023-04-10T09:37:37.685Z,18.17
2023-04-10T09:40:21.775Z,17.67
2023-04-10T09:42:50.369Z,16.08
2023-04-10T09:45:20.088Z,17.50
2023-04-10T09:48:03.568Z,17.27
2023-04-10T09:50:40.255Z,16.50
2023-04-10T09:53:09.844Z,16.42
2023-04-10T09:55:40.133Z,17.90
2023-04-10T09:58:09.295Z,17.00
2023-04-10T10:00:41.452Z,15.57
2023-04-10T10:03:13.428Z,16.40
2023-04-10T10:05:43.473Z,15.40
2023-04-10T10:08:13.525Z,16.17
2023-04-10T10:10:47.125Z,16.70
2023-04-10T10:13:18.914Z,17.60
2023-04-10T10:15:53.120Z,16.40
2023-04-10T10:18:27.202Z,16.83
2023-04-10T10:20:55.699Z,15.23
2023-04-10T10:23:25.420Z,15.43
2023-04-10T10:25:55.998Z,14.95
2023-04-10T10:28:25.740Z,14.50
2023-04-10T10:30:55.874Z,15.05
2023-04-10T10:33:26.081Z,13.50
2023-04-10T10:35:54.924Z,15.23
2023-04-10T10:38:23.907Z,12.27
2023-04-10T10:41:03.624Z,12.68
2023-04-10T10:43:39.594Z,11.15
2023-04-10T10:46:12.393Z,11.35
2023-04-10T10:48:40.783Z,11.90
2023-04-10T10:51:09.182Z,11.65
2023-04-10T10:53:40.322Z,11.43
2023-04-10T10:56:38.191Z,10.30
2023-04-10T10:59:06.576Z,9.40
2023-04-10T11:01:35.094Z,8.73
2023-04-10T11:04:50.556Z,8.68
2023-04-10T11:07:19.601Z,8.25
2023-04-10T11:09:52.439Z,8.57
2023-04-10T11:12:23.905Z,9.05
2023-04-10T11:15:00.392Z,8.38
2023-04-10T11:17:50.739Z,8.07
2023-04-10T11:20:20.999Z,8.70
2023-04-10T11:23:10.117Z,9.52
2023-04-10T11:25:49.516Z,8.98
2023-04-10T11:28:46.320Z,9.35
2023-04-10T11:31:19.763Z,9.38
2023-04-10T11:33:49.811Z,9.75
2023-04-10T11:36:18.618Z,9.25
2023-04-10T11:38:56.054Z,9.15
2023-04-10T11:41:28.702Z,8.63
2023-04-10T11:43:58.768Z,9.98
2023-04-10T11:46:27.504Z,10.27
2023-04-10T11:48:58.381Z,9.32
2023-04-10T11:51:28.328Z,11.02
2023-04-10T11:54:08.587Z,10.02
2023-04-10T11:56:38.429Z,8.38
2023-04-10T11:59:10.872Z,9.23
2023-04-10T12:01:42.726Z,9.65
2023-04-10T12:04:16.394Z,9.07
2023-04-10T12:06:46.201Z,9.25
2023-04-10T12:09:17.136Z,9.57
2023-04-10T12:11:53.601Z,9.25
2023-04-10T12:14:24.257Z,8.57
2023-04-10T12:16:53.049Z,9.38
2023-04-10T12:19:21.665Z,7.20
2023-04-10T12:21:51.232Z,7.68
2023-04-10T12:24:44.465Z,7.05
2023-04-10T12:27:19.500Z,7.32
2023-04-10T12:29:51.530Z,7.45
2023-04-10T12:32:20.373Z,7.53
2023-04-10T12:34:51.870Z,6.75
2023-04-10T12:37:23.186Z,6.97
2023-04-10T12:39:51.930Z,7.07
2023-04-10T12:42:22.652Z,6.82
2023-04-10T12:44:54.298Z,7.47
2023-04-10T12:47:23.729Z,6.70
2023-04-10T12:50:08.803Z,6.75
2023-04-10T12:52:38.233Z,7.07
2023-04-10T12:55:25.786Z,9.98
2023-04-10T12:57:54.983Z,7.00
2023-04-10T13:00:26.297Z,7.55
2023-04-10T13:02:55.148Z,8.05
2023-04-10T13:05:25.163Z,7.95
2023-04-10T13:07:53.759Z,7.65
2023-04-10T13:10:24.425Z,7.40
2023-04-10T13:12:52.974Z,7.78
2023-04-10T13:15:21.334Z,7.63
2023-04-10T13:17:51.137Z,8.13
2023-04-10T13:20:23.070Z,7.75
2023-04-10T13:22:51.447Z,8.18
2023-04-10T13:25:20.388Z,7.35
2023-04-10T13:27:48.741Z,7.55
2023-04-10T13:30:17.127Z,8.40
2023-04-10T13:32:45.523Z,7.55
2023-04-10T13:35:15.476Z,8.07
2023-04-10T13:37:43.808Z,7.18
2023-04-10T13:40:12.494Z,7.95
2023-04-10T13:42:42.519Z,7.38
2023-04-10T13:45:11.809Z,8.00
2023-04-10T13:47:40.376Z,8.00
2023-04-10T13:50:09.515Z,8.65
2023-04-10T13:52:39.323Z,8.38
2023-04-10T13:55:08.947Z,7.28
2023-04-10T13:57:37.373Z,7.90
2023-04-10T14:00:07.462Z,7.40
2023-04-10T14:02:36.056Z,7.97
2023-04-10T14:05:06.104Z,7.75
2023-04-10T14:07:34.445Z,7.18
2023-04-10T14:10:04.850Z,7.55
2023-04-10T14:12:34.315Z,7.00
2023-04-10T14:15:03.728Z,7.10
2023-04-10T14:17:32.178Z,9.57
2023-04-10T14:20:00.568Z,7.75
2023-04-10T14:22:30.239Z,9.23
2023-04-10T14:25:09.504Z,8.23
2023-04-10T14:27:43.722Z,8.70
2023-04-10T14:30:12.679Z,7.68
2023-04-10T14:32:41.478Z,8.35
2023-04-10T14:35:10.712Z,9.43
2023-04-10T14:37:39.595Z,8.10
2023-04-10T14:40:09.831Z,7.82
2023-04-10T14:42:38.210Z,8.25
2023-04-10T14:45:09.291Z,8.73
2023-04-10T14:47:37.743Z,9.15
2023-04-10T14:50:07.790Z,8.57
2023-04-10T14:52:36.282Z,8.77
2023-04-10T14:55:05.141Z,9.07
2023-04-10T14:57:33.537Z,8.48
2023-04-10T15:00:01.999Z,8.68
2023-04-10T15:02:31.947Z,7.95
2023-04-10T15:05:00.353Z,9.35
2023-04-10T15:07:28.831Z,8.70
2023-04-10T15:09:57.859Z,9.25
2023-04-10T15:12:26.668Z,9.45
2023-04-10T15:14:55.282Z,9.40
2023-04-10T15:17:24.786Z,9.10
2023-04-10T15:19:54.789Z,9.05
2023-04-10T15:22:23.354Z,9.27
2023-04-10T15:24:52.001Z,9.00
2023-04-10T15:27:21.506Z,9.02
2023-04-10T15:29:50.376Z,8.70
2023-04-10T15:32:18.940Z,9.15
2023-04-10T15:34:47.503Z,9.63
2023-04-10T15:37:17.349Z,9.05
2023-04-10T15:39:46.043Z,8.40
2023-04-10T15:42:15.940Z,9.13
2023-04-10T15:44:48.834Z,8.35
2023-04-10T15:47:17.885Z,9.90
2023-04-10T15:49:46.321Z,8.27
2023-04-10T15:52:14.878Z,7.78
2023-04-10T15:54:45.081Z,8.60
2023-04-10T15:57:13.708Z,8.68
2023-04-10T15:59:42.150Z,8.05
2023-04-10T16:02:10.776Z,8.13
2023-04-10T16:04:39.587Z,8.50
2023-04-10T16:07:08.055Z,8.07
2023-04-10T16:09:36.440Z,7.90
2023-04-10T16:12:06.514Z,8.00
2023-04-10T16:14:34.960Z,10.07
2023-04-10T16:17:03.567Z,10.75
2023-04-10T16:19:32.250Z,9.57
2023-04-10T16:22:00.681Z,9.82
2023-04-10T16:24:29.334Z,12.65
2023-04-10T16:26:57.898Z,9.50
2023-04-10T16:29:29.756Z,9.80
2023-04-10T16:31:58.133Z,9.07
2023-04-10T16:34:26.535Z,8.70
2023-04-10T16:36:56.188Z,9.23
2023-04-10T16:39:24.555Z,8.82
2023-04-10T16:41:53.070Z,10.82
2023-04-10T16:44:21.479Z,9.18
2023-04-10T16:46:51.381Z,9.07
2023-04-10T16:49:19.742Z,9.15
2023-04-10T16:51:48.114Z,9.18
2023-04-10T16:54:16.588Z,8.70
2023-04-10T16:56:45.012Z,9.30
2023-04-10T16:59:13.481Z,8.85
2023-04-10T17:01:42.028Z,8.45
2023-04-10T17:04:12.820Z,9.50
2023-04-10T17:06:41.235Z,9.52
2023-04-10T17:09:10.059Z,9.43
2023-04-10T17:11:38.515Z,8.18
2023-04-10T17:14:07.359Z,9.00
2023-04-10T17:16:35.800Z,8.20
2023-04-10T17:19:07.053Z,9.10
2023-04-10T17:21:39.205Z,9.70
2023-04-10T17:24:09.229Z,13.98
2023-04-10T17:26:39.655Z,12.63
2023-04-10T17:29:08.058Z,23.40
2023-04-10T17:31:36.629Z,8.77
2023-04-10T17:34:05.106Z,8.68
2023-04-10T17:36:33.688Z,8.77
2023-04-10T17:39:05.978Z,7.72
2023-04-10T17:41:41.286Z,8.68
2023-04-10T17:44:18.873Z,8.00
2023-04-10T17:46:50.443Z,8.20
2023-04-10T17:49:19.013Z,7.90
2023-04-10T17:51:47.479Z,8.35
2023-04-10T17:54:17.362Z,10.38
2023-04-10T17:56:45.727Z,11.88
2023-04-10T17:59:14.138Z,8.68
2023-04-10T18:01:42.745Z,10.57
2023-04-10T18:04:11.385Z,9.50
2023-04-10T18:06:40.966Z,9.95
2023-04-10T18:09:09.321Z,9.85
2023-04-10T18:11:40.802Z,8.90
2023-04-10T18:14:09.301Z,9.55
2023-04-10T18:16:37.850Z,11.02
2023-04-10T18:19:06.392Z,9.85
2023-04-10T18:21:35.830Z,9.65
2023-04-10T18:24:04.690Z,8.75
2023-04-10T18:26:35.835Z,11.98
2023-04-10T18:29:05.576Z,17.75
2023-04-10T18:31:33.899Z,10.43
2023-04-10T18:34:07.845Z,10.70
2023-04-10T18:36:37.276Z,9.52
2023-04-10T18:39:08.072Z,9.95
2023-04-10T18:41:38.252Z,10.95
2023-04-10T18:44:08.262Z,10.75
2023-04-10T18:46:36.982Z,11.02
2023-04-10T18:49:05.542Z,10.55
2023-04-10T18:51:35.571Z,10.77
2023-04-10T18:54:04.130Z,11.68
2023-04-10T18:56:35.407Z,9.88
2023-04-10T18:59:03.814Z,12.77
2023-04-10T19:01:34.019Z,10.48
2023-04-10T19:04:02.711Z,20.75
2023-04-10T19:06:32.373Z,9.80
2023-04-10T19:09:00.991Z,9.77
2023-04-10T19:11:29.409Z,11.63
2023-04-10T19:13:57.980Z,8.75
2023-04-10T19:16:26.606Z,8.88
2023-04-10T19:18:56.917Z,8.43
2023-04-10T19:21:25.721Z,8.77
2023-04-10T19:23:54.846Z,8.15
2023-04-10T19:26:23.453Z,9.43
2023-04-10T19:28:51.838Z,8.88
2023-04-10T19:31:20.949Z,9.48
2023-04-10T19:33:49.406Z,15.02
2023-04-10T19:36:20.481Z,9.80
2023-04-10T19:38:51.150Z,9.10
2023-04-10T19:41:19.571Z,9.10
2023-04-10T19:43:47.979Z,12.43
2023-04-10T19:46:17.813Z,10.90
2023-04-10T19:48:46.712Z,9.43
2023-04-10T19:51:15.452Z,9.70
2023-04-10T19:53:45.319Z,8.43
2023-04-10T19:56:13.694Z,8.05
2023-04-10T19:58:43.397Z,10.32
2023-04-10T20:01:13.079Z,10.32
2023-04-10T20:03:41.646Z,8.05
2023-04-10T20:06:11.225Z,8.48
2023-04-10T20:08:39.554Z,8.05
2023-04-10T20:11:09.598Z,8.32
2023-04-10T20:13:39.212Z,7.32
2023-04-10T20:16:08.611Z,7.88
2023-04-10T20:18:37.597Z,7.80
2023-04-10T20:21:07.776Z,8.20
2023-04-10T20:23:36.255Z,7.72
2023-04-10T20:26:04.569Z,7.80
2023-04-10T20:28:34.242Z,8.93
2023-04-10T20:31:02.663Z,7.85
2023-04-10T20:33:31.076Z,7.65
2023-04-10T20:35:59.488Z,7.65
2023-04-10T20:38:27.912Z,7.97
2023-04-10T20:40:56.266Z,7.22
2023-04-10T20:43:24.644Z,7.75
2023-04-10T20:45:54.444Z,7.45
2023-04-10T20:48:22.942Z,7.82
2023-04-10T20:50:51.844Z,8.05
2023-04-10T20:53:20.344Z,7.53
2023-04-10T20:55:54.174Z,7.88
2023-04-10T20:58:25.274Z,7.10
2023-04-10T21:00:55.010Z,7.25
2023-04-10T21:03:24.111Z,6.85
2023-04-10T21:05:53.932Z,7.20
2023-04-10T21:08:22.543Z,7.45
2023-04-10T21:10:51.360Z,7.18
2023-04-10T21:13:19.709Z,7.20
2023-04-10T21:15:49.652Z,7.20
2023-04-10T21:18:20.174Z,7.30
2023-04-10T21:20:49.723Z,6.78
2023-04-10T21:23:18.154Z,8.45
2023-04-10T21:25:52.560Z,8.60
2023-04-10T21:28:21.030Z,7.80
2023-04-10T21:30:49.402Z,7.10
2023-04-10T21:33:19.094Z,7.10
2023-04-10T21:35:47.435Z,7.47
2023-04-10T21:38:15.829Z,7.30
2023-04-10T21:40:51.428Z,7.25
2023-04-10T21:43:19.899Z,7.30
2023-04-10T21:45:48.495Z,7.35
2023-04-10T21:48:17.131Z,7.22
2023-04-10T21:50:46.862Z,8.38
2023-04-10T21:53:16.163Z,7.60
2023-04-10T21:55:44.720Z,7.82
2023-04-10T21:58:13.041Z,7.80
2023-04-10T22:00:42.535Z,7.32
2023-04-10T22:03:11.272Z,7.30
2023-04-10T22:05:39.798Z,7.03
2023-04-10T22:08:09.538Z,7.43
2023-04-10T22:10:38.287Z,8.13
2023-04-10T22:13:08.812Z,7.07
2023-04-10T22:15:38.606Z,7.57
2023-04-10T22:18:07.040Z,7.63
2023-04-10T22:20:35.860Z,7.30
2023-04-10T22:23:04.610Z,7.40
2023-04-10T22:25:38.172Z,7.93
2023-04-10T22:28:07.046Z,7.78
2023-04-10T22:30:35.489Z,7.60
2023-04-10T22:33:04.197Z,7.10
2023-04-10T22:35:32.624Z,7.50
2023-04-10T22:38:03.691Z,7.63
2023-04-10T22:40:32.231Z,7.53
2023-04-10T22:43:01.908Z,7.75
2023-04-10T22:45:30.276Z,7.57
2023-04-10T22:47:58.631Z,7.40
2023-04-10T22:50:27.032Z,7.72
2023-04-10T22:52:55.654Z,7.35
2023-04-10T22:55:23.982Z,7.95
2023-04-10T22:57:52.294Z,7.82
2023-04-10T23:00:22.094Z,7.90
2023-04-10T23:02:50.572Z,7.15
2023-04-10T23:05:18.988Z,7.97
2023-04-10T23:07:47.312Z,8.23
2023-04-10T23:10:15.686Z,7.75
2023-04-10T23:12:44.127Z,7.70
2023-04-10T23:15:12.573Z,7.68
2023-04-10T23:17:42.366Z,7.80
2023-04-10T23:20:11.840Z,7.60
2023-04-10T23:22:40.269Z,7.50
2023-04-10T23:25:09.168Z,8.00
2023-04-10T23:27:37.555Z,7.57
2023-04-10T23:30:07.322Z,7.85
2023-04-10T23:32:35.796Z,7.65
2023-04-10T23:35:06.139Z,7.50
2023-04-10T23:37:35.275Z,7.90
2023-04-10T23:40:04.043Z,8.02
2023-04-10T23:42:32.504Z,7.60
2023-04-10T23:45:00.860Z,7.70
2023-04-10T23:47:29.225Z,8.10
2023-04-10T23:49:57.679Z,7.93
2023-04-10T23:52:27.442Z,7.40
2023-04-10T23:54:56.498Z,7.32
2023-04-10T23:57:24.938Z,7.40
2023-04-10T23:59:53.683Z,7.38
